Time;durP1;ratioP1;P1;durP2;ratioP2;P2;SDS_P1;SDS_P2;PMS_P1;PMS_P2;Temp;Humidity;BMP_temperature;BMP_pressure;BME280_temperature;BME280_humidity;BME280_pressure;Samples;Min_cycle;Max_cycle;Signal;HPM_P1;HPM_P2
2023/09/02 00:02:02;;;;;;;23.80;20.70;;;;;;;15.58;100.00;101581.09;4956463;28;20074;-65
2023/09/02 00:04:28;;;;;;;22.35;20.15;;;;;;;15.50;100.00;101572.50;4937977;28;20153;-65
2023/09/02 00:06:53;;;;;;;23.98;21.45;;;;;;;15.49;100.00;101572.53;4954335;28;20118;-65
2023/09/02 00:09:19;;;;;;;21.88;19.77;;;;;;;15.53;100.00;101571.53;4971830;28;20133;-65
2023/09/02 00:11:44;;;;;;;23.67;21.15;;;;;;;15.50;100.00;101571.59;4940083;28;20390;-65
2023/09/02 00:14:10;;;;;;;21.45;19.42;;;;;;;15.52;100.00;101575.09;4922925;28;20420;-65
2023/09/02 00:16:35;;;;;;;26.60;22.17;;;;;;;15.47;100.00;101571.66;4924028;28;20057;-65
2023/09/02 00:19:02;;;;;;;22.90;20.70;;;;;;;15.50;100.00;101576.88;4924320;28;20034;-65
2023/09/02 00:21:27;;;;;;;24.23;21.67;;;;;;;15.50;100.00;101571.59;4924811;28;20034;-65
2023/09/02 00:24:02;;;;;;;23.95;21.42;;;;;;;15.49;100.00;101576.03;4923534;28;20082;-65
2023/09/02 00:26:29;;;;;;;22.85;20.50;;;;;;;15.49;100.00;101578.66;4958412;28;20122;-65
2023/09/02 00:28:54;;;;;;;21.70;19.58;;;;;;;15.44;100.00;101572.59;4957192;28;20127;-65
2023/09/02 00:31:20;;;;;;;23.50;21.10;;;;;;;15.44;100.00;101572.59;4959863;28;20191;-65
2023/09/02 00:33:45;;;;;;;24.95;22.10;;;;;;;15.47;100.00;101571.66;4943362;28;20085;-65
2023/09/02 00:36:11;;;;;;;25.38;22.63;;;;;;;15.46;100.00;101578.75;4943487;28;20446;-65
2023/09/02 00:38:36;;;;;;;24.20;21.67;;;;;;;15.50;100.00;101587.44;4926503;28;20049;-65
2023/09/02 00:41:06;;;;;;;24.45;21.75;;;;;;;15.53;100.00;101587.38;4941825;28;20040;-65
2023/09/02 00:43:31;;;;;;;25.40;22.80;;;;;;;15.53;100.00;101577.72;4971216;28;20031;-65
2023/09/02 00:45:58;;;;;;;24.67;22.17;;;;;;;15.56;100.00;101579.41;4943631;28;20031;-65
2023/09/02 00:48:24;;;;;;;23.98;21.73;;;;;;;15.56;100.00;101576.78;4931703;28;20117;-65
2023/09/02 00:50:49;;;;;;;23.00;20.58;;;;;;;15.55;100.00;101582.97;4959863;28;20190;-65
2023/09/02 00:53:14;;;;;;;23.75;21.30;;;;;;;15.57;100.00;101575.84;4942963;28;20505;-65
2023/09/02 00:55:40;;;;;;;22.75;20.45;;;;;;;15.59;100.00;101577.56;4927306;28;20027;-65
2023/09/02 00:58:07;;;;;;;23.38;20.88;;;;;;;15.58;100.00;101581.09;4943440;28;20479;-65
2023/09/02 01:00:32;;;;;;;23.95;21.45;;;;;;;15.58;100.00;101575.81;4946103;28;20026;-65
2023/09/02 01:02:58;;;;;;;22.98;20.55;;;;;;;15.58;100.00;101580.25;4959051;28;20023;-65
2023/09/02 01:05:24;;;;;;;23.83;21.33;;;;;;;15.57;100.00;101582.03;4941553;28;20428;-65
2023/09/02 01:07:51;;;;;;;22.13;19.85;;;;;;;15.59;100.00;101582.00;4927071;28;20092;-65
2023/09/02 01:10:18;;;;;;;21.60;19.30;;;;;;;15.61;100.00;101585.47;4942665;28;20121;-65
2023/09/02 01:12:44;;;;;;;21.05;18.95;;;;;;;15.65;100.00;101591.56;4946061;28;20030;-65
2023/09/02 01:15:09;;;;;;;23.70;21.15;;;;;;;15.56;100.00;101580.28;4925483;28;20034;-65
2023/09/02 01:17:35;;;;;;;21.33;19.13;;;;;;;15.63;100.00;101582.78;4942106;28;20483;-65
2023/09/02 01:20:06;;;;;;;23.73;20.23;;;;;;;15.51;100.00;101592.69;4958400;28;20026;-65
2023/09/02 01:22:59;;;;;;;22.83;20.42;;;;;;;15.56;100.00;101590.84;4942778;28;20487;-65
2023/09/02 01:25:40;;;;;;;23.42;20.92;;;;;;;15.57;100.00;101594.34;4974554;28;20084;-65
2023/09/02 01:28:10;;;;;;;;;;;;;;;15.68;100.00;101594.13;4971753;28;20087;-65
2023/09/02 01:30:38;;;;;;;19.25;17.35;;;;;;;15.52;100.00;101588.31;4956012;28;19937;-65
2023/09/02 01:33:08;;;;;;;18.77;16.85;;;;;;;15.48;100.00;101599.84;4958591;28;20026;-65
2023/09/02 01:35:34;;;;;;;;;;;;;;;15.63;100.00;101599.53;4959094;28;20401;-65
2023/09/02 01:38:03;;;;;;;22.70;20.27;;;;;;;15.48;100.00;101600.69;4954428;29;19918;-65
2023/09/02 01:40:33;;;;;;;22.83;20.38;;;;;;;15.46;100.00;101593.69;4967052;28;20030;-65
2023/09/02 01:42:59;;;;;;;23.02;20.73;;;;;;;15.43;100.00;101597.28;4958309;28;20040;-65
2023/09/02 01:45:27;;;;;;;18.85;17.10;;;;;;;15.35;100.00;101596.56;4938592;28;20058;-65
2023/09/02 01:47:54;;;;;;;22.02;19.83;;;;;;;15.38;100.00;101593.84;4965050;28;20045;-65
2023/09/02 01:50:24;;;;;;;23.52;20.70;;;;;;;15.38;100.00;101607.06;4939025;28;20113;-65
2023/09/02 01:52:50;;;;;;;24.65;22.17;;;;;;;15.40;100.00;101602.59;4971979;28;20034;-65
2023/09/02 01:55:16;;;;;;;29.08;23.80;;;;;;;15.39;100.00;101608.81;4949580;28;20034;-65
2023/09/02 01:57:42;;;;;;;97.05;24.83;;;;;;;15.27;100.00;101601.13;4971892;28;20117;-65
2023/09/02 02:00:11;;;;;;;24.65;21.38;;;;;;;15.33;100.00;101601.88;4941111;28;20142;-65
2023/09/02 02:02:38;;;;;;;24.77;22.00;;;;;;;15.30;100.00;101598.41;4963233;28;20074;-65
2023/09/02 02:05:06;;;;;;;24.90;22.27;;;;;;;15.35;100.00;101609.78;4946724;28;20546;-65
2023/09/02 02:07:35;;;;;;;29.92;23.77;;;;;;;15.31;100.00;101611.59;4946153;28;20081;-65
2023/09/02 02:10:08;;;;;;;25.88;23.13;;;;;;;15.33;100.00;101620.38;4969498;28;20038;-65
2023/09/02 02:12:34;;;;;;;26.17;23.58;;;;;;;15.30;100.00;101611.63;4959028;28;20134;-65
2023/09/02 02:14:59;;;;;;;23.33;21.05;;;;;;;15.31;100.00;101613.38;4964217;28;20505;-65
2023/09/02 02:17:28;;;;;;;23.75;21.25;;;;;;;15.32;100.00;101612.47;4938270;29;20043;-65
2023/09/02 02:19:54;;;;;;;22.00;19.85;;;;;;;15.31;100.00;101613.38;4965385;28;20031;-65
2023/09/02 02:22:19;;;;;;;28.35;22.10;;;;;;;15.26;100.00;101610.81;4925740;28;20097;-65
2023/09/02 02:24:45;;;;;;;22.52;20.33;;;;;;;15.27;100.00;101622.25;4956915;28;20491;-65
2023/09/02 02:27:10;;;;;;;21.25;19.15;;;;;;;15.25;100.00;101624.91;4941181;28;20038;-65
2023/09/02 02:29:36;;;;;;;20.52;18.33;;;;;;;15.23;100.00;101622.31;4924394;28;20042;-65
2023/09/02 02:32:01;;;;;;;21.05;18.83;;;;;;;15.21;100.00;101623.22;4941491;28;20035;-65
2023/09/02 02:34:26;;;;;;;20.95;18.77;;;;;;;15.19;100.00;101628.53;4940932;28;20066;-65
2023/09/02 02:36:52;;;;;;;21.15;18.88;;;;;;;15.19;100.00;101620.63;4924826;28;20035;-65
2023/09/02 02:39:18;;;;;;;22.10;20.02;;;;;;;15.25;100.00;101635.47;4940564;28;20027;-65
2023/09/02 02:41:43;;;;;;;31.10;19.88;;;;;;;15.10;100.00;101627.81;4940987;28;20038;-65
2023/09/02 02:44:09;;;;;;;135.68;23.73;;;;;;;15.10;100.00;101626.06;4939930;28;20034;-65
2023/09/02 02:46:34;;;;;;;77.63;20.08;;;;;;;15.08;100.00;101627.84;4941310;28;20371;-65
2023/09/02 02:48:59;;;;;;;159.13;25.52;;;;;;;15.04;100.00;101628.81;4940817;28;20041;-65
2023/09/02 02:51:25;;;;;;;38.80;21.98;;;;;;;15.04;100.00;101629.69;4955976;28;20037;-65
2023/09/02 02:53:51;;;;;;;29.10;22.38;;;;;;;15.09;100.00;101634.03;4956712;28;20097;-65
2023/09/02 02:56:16;;;;;;;39.58;23.88;;;;;;;15.07;100.00;101626.13;4925233;28;20083;-65
2023/09/02 02:58:42;;;;;;;23.98;21.50;;;;;;;15.06;100.00;101637.59;4923893;28;20137;-65
2023/09/02 03:01:09;;;;;;;25.10;22.02;;;;;;;15.04;100.00;101628.81;4956486;28;20050;-65
2023/09/02 03:03:35;;;;;;;24.95;20.58;;;;;;;15.09;100.00;101634.03;4944200;28;20045;-65
2023/09/02 03:06:04;;;;;;;22.60;20.17;;;;;;;15.10;100.00;101631.34;4924056;28;20035;-65
2023/09/02 03:08:30;;;;;;;23.20;20.70;;;;;;;15.09;100.00;101634.88;4940877;28;20027;-65
2023/09/02 03:10:58;;;;;;;21.50;19.42;;;;;;;15.11;100.00;101627.78;4956607;28;20035;-65
2023/09/02 03:13:24;;;;;;;21.65;19.45;;;;;;;15.11;100.00;101630.44;4940569;28;20376;-65
2023/09/02 03:15:51;;;;;;;24.85;20.60;;;;;;;15.08;100.00;101627.84;4939766;28;20031;-65
2023/09/02 03:18:16;;;;;;;25.45;22.83;;;;;;;15.11;100.00;101626.94;4940753;28;20077;-65
2023/09/02 03:20:42;;;;;;;25.10;22.60;;;;;;;15.16;100.00;101617.19;4939291;28;20066;-65
2023/09/02 03:23:07;;;;;;;24.88;19.92;;;;;;;15.10;100.00;101633.09;4956625;28;20089;-65
2023/09/02 03:25:34;;;;;;;27.65;22.15;;;;;;;15.06;100.00;101625.25;4940286;28;20034;-65
2023/09/02 03:28:00;;;;;;;25.75;22.20;;;;;;;15.10;100.00;101635.75;4940731;28;20038;-65
2023/09/02 03:30:26;;;;;;;30.73;24.30;;;;;;;15.10;100.00;101630.47;4955241;28;20034;-65
2023/09/02 03:32:51;;;;;;;25.00;22.25;;;;;;;15.11;100.00;101633.06;4923674;28;20035;-65
2023/09/02 03:35:16;;;;;;;22.15;19.85;;;;;;;15.09;100.00;101620.81;4950419;28;20035;-65
2023/09/02 03:37:45;;;;;;;22.08;19.75;;;;;;;15.09;100.00;101626.97;4924249;28;20038;-65
2023/09/02 03:40:11;;;;;;;30.63;22.17;;;;;;;15.08;100.00;101630.50;4940024;28;20395;-65
2023/09/02 03:42:36;;;;;;;30.60;25.25;;;;;;;15.15;100.00;101637.41;4940129;28;20027;-65
2023/09/02 03:45:03;;;;;;;28.33;23.10;;;;;;;15.09;100.00;101636.66;4955769;28;20549;-65
2023/09/02 03:47:33;;;;;;;35.08;24.65;;;;;;;15.09;100.00;101639.31;4940008;28;20027;-65
2023/09/02 03:49:58;;;;;;;32.33;23.70;;;;;;;15.06;100.00;101638.44;4939684;28;20142;-65
2023/09/02 03:52:24;;;;;;;24.08;21.48;;;;;;;15.06;100.00;101640.22;4971473;28;20113;-65
2023/09/02 03:54:50;;;;;;;25.08;22.38;;;;;;;15.09;100.00;101645.44;4940425;28;20050;-65
2023/09/02 03:57:15;;;;;;;33.10;23.90;;;;;;;15.06;100.00;101651.63;4972457;28;20035;-65
2023/09/02 03:59:41;;;;;;;27.25;24.38;;;;;;;15.11;100.00;101648.91;4938896;28;20491;-65
2023/09/02 04:02:06;;;;;;;26.65;24.00;;;;;;;15.16;100.00;101649.72;4926520;28;20116;-65
2023/09/02 04:04:32;;;;;;;27.17;24.25;;;;;;;15.15;100.00;101650.59;4923864;29;20094;-65
2023/09/02 04:06:58;;;;;;;28.67;23.85;;;;;;;15.12;100.00;101655.94;4925465;29;20039;-65
2023/09/02 04:09:23;;;;;;;27.92;23.15;;;;;;;15.10;100.00;101654.22;4919115;28;20321;-66
2023/09/02 04:11:49;;;;;;;26.08;23.23;;;;;;;15.09;100.00;101656.00;4944034;28;20113;-66
2023/09/02 04:14:14;;;;;;;33.30;26.35;;;;;;;15.07;100.00;101658.66;4942199;28;20043;-65
2023/09/02 04:16:40;;;;;;;29.13;23.67;;;;;;;15.10;100.00;101655.13;4943255;28;20038;-65
2023/09/02 04:19:05;;;;;;;24.50;22.02;;;;;;;15.13;100.00;101649.78;4924397;29;20475;-65
2023/09/02 04:21:31;;;;;;;26.20;23.40;;;;;;;15.14;100.00;101659.44;4928070;28;20475;-65
2023/09/02 04:23:57;;;;;;;29.98;24.13;;;;;;;15.06;100.00;101653.41;4958740;28;20054;-65
2023/09/02 04:26:22;;;;;;;25.85;23.13;;;;;;;15.11;100.00;101654.19;4943353;28;20443;-65
2023/09/02 04:28:48;;;;;;;25.88;23.10;;;;;;;15.13;100.00;101656.81;4925663;28;20046;-65
2023/09/02 04:31:14;;;;;;;26.13;23.30;;;;;;;15.13;100.00;101656.81;4943840;28;20034;-66
2023/09/02 04:33:39;;;;;;;27.35;22.42;;;;;;;15.13;100.00;101652.41;4943150;28;20101;-65
2023/09/02 04:36:05;;;;;;;30.60;24.50;;;;;;;15.08;100.00;101656.88;4951163;28;20034;-65
2023/09/02 04:38:31;;;;;;;25.48;22.58;;;;;;;15.10;100.00;101656.84;4974818;28;20058;-65
2023/09/02 04:40:56;;;;;;;26.25;21.85;;;;;;;15.06;100.00;101666.63;4959340;28;20031;-66
2023/09/02 04:43:23;;;;;;;45.72;23.05;;;;;;;15.01;100.00;101660.53;4941977;28;20391;-65
2023/09/02 04:45:48;;;;;;;33.33;23.95;;;;;;;15.04;100.00;101664.00;4947325;28;20050;-65
2023/09/02 04:48:15;;;;;;;26.25;21.17;;;;;;;15.00;100.00;101670.22;4936081;28;20073;-66
2023/09/02 04:50:41;;;;;;;29.92;21.75;;;;;;;15.01;100.00;101665.81;4933972;28;20041;-65
2023/09/02 04:53:07;;;;;;;27.52;21.60;;;;;;;15.00;100.00;101666.72;4958898;28;20030;-65
2023/09/02 04:55:33;;;;;;;24.13;20.75;;;;;;;15.05;100.00;101670.16;4958692;28;20041;-65
2023/09/02 04:57:59;;;;;;;21.33;19.08;;;;;;;15.10;100.00;101672.69;4957925;28;20559;-65
2023/09/02 05:00:28;;;;;;;21.35;19.27;;;;;;;15.11;100.00;101677.09;4942210;28;20035;-65
2023/09/02 05:02:55;;;;;;;19.92;17.88;;;;;;;15.12;100.00;101666.50;4958586;28;20053;-65
2023/09/02 05:05:22;;;;;;;20.45;18.35;;;;;;;15.13;100.00;101680.56;4942170;28;20035;-65
2023/09/02 05:07:48;;;;;;;18.85;17.02;;;;;;;15.14;100.00;101675.28;4942771;28;20039;-66
2023/09/02 05:10:15;;;;;;;19.20;17.20;;;;;;;15.15;100.00;101684.91;4935270;28;20233;-65
2023/09/02 05:12:41;;;;;;;17.42;15.82;;;;;;;15.21;100.00;101689.22;4942481;28;20049;-65
2023/09/02 05:15:07;;;;;;;17.25;15.60;;;;;;;15.15;100.00;101684.91;4961278;28;20085;-65
2023/09/02 05:17:33;;;;;;;15.82;14.40;;;;;;;15.19;100.00;101681.34;4958347;28;20087;-66
2023/09/02 05:20:03;;;;;;;16.42;14.57;;;;;;;15.08;100.00;101685.94;4951144;28;20115;-65
2023/09/02 05:22:29;;;;;;;18.05;16.15;;;;;;;15.15;100.00;101686.69;4968687;28;20460;-65
2023/09/02 05:24:55;;;;;;;17.20;15.50;;;;;;;15.11;100.00;101688.50;4941306;28;20136;-65
2023/09/02 05:27:20;;;;;;;25.23;18.33;;;;;;;15.13;100.00;101686.72;4958372;28;20062;-65
2023/09/02 05:29:46;;;;;;;34.70;17.50;;;;;;;15.13;100.00;101688.47;4957416;28;20114;-65
2023/09/02 05:32:16;;;;;;;26.70;18.90;;;;;;;15.08;100.00;101699.13;4942083;28;20153;-65
2023/09/02 05:34:42;;;;;;;29.63;17.08;;;;;;;15.10;100.00;101693.81;4958228;28;20031;-65
2023/09/02 05:37:08;;;;;;;22.13;15.85;;;;;;;15.05;100.00;101693.91;4975431;28;20364;-65
2023/09/02 05:39:33;;;;;;;25.17;17.65;;;;;;;15.09;100.00;101708.78;4941340;28;20034;-66
2023/09/02 05:41:59;;;;;;;24.42;16.48;;;;;;;15.08;100.00;101714.97;4926410;28;20046;-66
2023/09/02 05:44:24;;;;;;;16.65;14.93;;;;;;;15.21;100.00;101713.88;4925189;28;20034;-66
2023/09/02 05:46:50;;;;;;;16.08;14.07;;;;;;;15.25;100.00;101718.19;4926471;28;20030;-65
2023/09/02 05:49:15;;;;;;;19.70;16.48;;;;;;;15.22;100.00;101720.88;4959076;28;20084;-65
2023/09/02 05:51:41;;;;;;;71.55;18.77;;;;;;;15.25;100.00;101725.25;4941955;28;20391;-65
2023/09/02 05:54:08;;;;;;;37.40;18.73;;;;;;;15.28;100.00;101729.59;4924539;28;20062;-65
2023/09/02 05:56:34;;;;;;;17.58;15.85;;;;;;;15.40;100.00;101732.00;4926451;28;20388;-65
2023/09/02 05:59:03;;;;;;;15.32;13.85;;;;;;;15.45;100.00;101732.81;4956843;28;20058;-66
2023/09/02 06:01:29;;;;;;;15.93;14.32;;;;;;;15.51;100.00;101730.06;4970166;28;20499;-65
2023/09/02 06:03:54;;;;;;;16.58;15.07;;;;;;;15.53;100.00;101735.31;4926019;28;20074;-65
2023/09/02 06:06:20;;;;;;;17.05;14.70;;;;;;;15.63;100.00;101730.72;4941967;28;20118;-65
2023/09/02 06:08:46;;;;;;;18.50;14.45;;;;;;;15.65;100.00;101743.03;4957373;28;20027;-66
2023/09/02 06:11:12;;;;;;;19.13;14.77;;;;;;;15.69;100.00;101743.84;4955572;28;20051;-65
2023/09/02 06:13:38;;;;;;;15.13;13.43;;;;;;;15.79;100.00;101742.81;4956118;28;20029;-65
2023/09/02 06:16:05;;;;;;;15.23;13.75;;;;;;;15.82;100.00;101745.38;4945084;28;20038;-65
2023/09/02 06:18:31;;;;;;;17.77;13.98;;;;;;;15.82;100.00;101748.03;4967609;28;20031;-65
2023/09/02 06:20:57;;;;;;;17.98;13.05;;;;;;;15.85;100.00;101752.38;4941557;28;20156;-65
2023/09/02 06:23:24;;;;;;;15.05;13.05;;;;;;;15.97;100.00;101751.28;4957048;28;20043;-65
2023/09/02 06:26:00;;;;;;;17.33;14.48;;;;;;;16.11;100.00;101759.78;4956763;28;20033;-66
2023/09/02 06:28:27;;;;;;;16.10;14.50;;;;;;;16.37;100.00;101761.03;4939699;28;20041;-65
2023/09/02 06:30:53;;;;;;;16.55;14.38;;;;;;;16.45;100.00;101756.47;4940913;28;20506;-65
2023/09/02 06:33:21;;;;;;;16.00;14.23;;;;;;;16.55;100.00;101758.00;4957733;28;20027;-65
2023/09/02 06:35:47;;;;;;;18.25;15.30;;;;;;;16.54;100.00;101766.81;4941266;28;20089;-65
2023/09/02 06:38:13;;;;;;;17.92;14.73;;;;;;;16.56;100.00;101770.28;4938136;29;20081;-65
2023/09/02 06:40:38;;;;;;;17.00;15.20;;;;;;;16.57;100.00;101777.34;4937785;29;20066;-65
2023/09/02 06:43:03;;;;;;;15.95;14.32;;;;;;;16.73;100.00;101775.22;4945364;28;20108;-66
2023/09/02 06:45:29;;;;;;;16.10;14.50;;;;;;;16.82;100.00;101774.13;4910388;29;20538;-65
2023/09/02 06:47:54;;;;;;;16.77;14.35;;;;;;;16.94;100.00;101779.19;4964942;28;20034;-66
2023/09/02 06:50:20;;;;;;;15.30;13.90;;;;;;;16.93;100.00;101792.47;4925272;28;20035;-65
2023/09/02 06:52:45;;;;;;;14.77;13.48;;;;;;;16.97;100.00;101802.06;4940951;28;20042;-65
2023/09/02 06:55:11;;;;;;;16.02;14.52;;;;;;;16.97;100.00;101800.28;4924531;28;20042;-65
2023/09/02 06:57:42;;;;;;;16.40;14.25;;;;;;;16.87;100.00;101811.97;4955768;28;20125;-65
2023/09/02 07:00:08;;;;;;;15.05;13.55;;;;;;;16.77;100.00;101807.78;4940077;28;20546;-65
2023/09/02 07:02:34;;;;;;;17.45;13.57;;;;;;;16.66;100.00;101820.38;4972951;28;20233;-65
2023/09/02 07:04:59;;;;;;;16.23;14.52;;;;;;;16.69;100.00;101825.59;4940853;28;20042;-65
2023/09/02 07:07:24;;;;;;;15.85;14.23;;;;;;;16.60;100.00;101838.13;4925059;28;20034;-65
2023/09/02 07:09:50;;;;;;;19.55;14.35;;;;;;;16.59;100.00;101835.50;4954143;28;20031;-65
2023/09/02 07:12:16;;;;;;;15.18;13.77;;;;;;;16.58;100.00;101841.72;4925053;28;20023;-65
2023/09/02 07:14:41;;;;;;;15.77;14.10;;;;;;;16.71;100.00;101840.56;4924004;28;20023;-65
2023/09/02 07:17:06;;;;;;;16.00;14.43;;;;;;;16.70;100.00;101848.53;4924730;28;20031;-65
2023/09/02 07:19:32;;;;;;;14.80;13.57;;;;;;;16.67;100.00;101848.59;4924781;28;20035;-65
2023/09/02 07:21:57;;;;;;;16.08;14.57;;;;;;;16.73;100.00;101848.47;4939354;28;20387;-65
2023/09/02 07:24:23;;;;;;;15.68;14.25;;;;;;;16.72;100.00;101857.28;4924550;28;20026;-65
2023/09/02 07:26:49;;;;;;;16.75;15.32;;;;;;;16.87;100.00;101864.91;4924904;28;20026;-65
2023/09/02 07:29:15;;;;;;;16.63;15.13;;;;;;;16.93;100.00;101862.16;4955517;28;20035;-65
2023/09/02 07:31:40;;;;;;;14.93;13.63;;;;;;;17.02;100.00;101865.50;4940703;28;20037;-65
2023/09/02 07:34:05;;;;;;;15.45;13.98;;;;;;;17.26;100.00;101872.03;4932487;29;20435;-65
2023/09/02 07:36:32;;;;;;;14.68;13.50;;;;;;;17.45;100.00;101872.47;4913354;28;20027;-65
2023/09/02 07:39:00;;;;;;;16.73;15.23;;;;;;;17.55;100.00;101876.63;4921405;29;20042;-65
2023/09/02 07:41:25;;;;;;;16.45;15.05;;;;;;;17.66;100.00;101873.72;4929119;28;20065;-65
2023/09/02 07:43:51;;;;;;;16.77;15.15;;;;;;;17.67;100.00;101876.34;4923265;28;20117;-65
2023/09/02 07:46:16;;;;;;;15.77;14.27;;;;;;;17.79;100.00;101875.13;4921249;28;20085;-65
2023/09/02 07:48:43;;;;;;;17.40;15.70;;;;;;;17.76;100.00;101884.97;4938977;28;20043;-65
2023/09/02 07:51:08;;;;;;;18.05;15.63;;;;;;;17.91;100.00;101889.88;4939865;28;20035;-65
2023/09/02 07:53:34;;;;;;;16.48;14.90;;;;;;;17.99;100.00;101893.22;4923932;28;20498;-66
2023/09/02 07:55:59;;;;;;;18.90;16.23;;;;;;;18.11;100.00;101899.13;4956052;28;20034;-66
2023/09/02 07:58:25;;;;;;;18.38;16.73;;;;;;;17.99;100.00;101898.53;4923794;28;20439;-66
2023/09/02 08:00:50;;;;;;;20.00;18.25;;;;;;;18.11;100.00;101904.44;4962955;28;20023;-66
2023/09/02 08:03:15;;;;;;;21.20;19.38;;;;;;;18.22;100.00;101889.09;4921234;28;20138;-66
2023/09/02 08:05:41;;;;;;;21.05;19.15;;;;;;;18.42;100.00;101898.28;4924182;28;20030;-66
2023/09/02 08:08:07;;;;;;;21.77;19.95;;;;;;;18.47;100.00;101893.72;4924328;28;20033;-65
2023/09/02 08:10:33;;;;;;;22.17;20.15;;;;;;;18.50;100.00;101901.59;4955589;28;20442;-66
2023/09/02 08:13:00;;;;;;;20.95;18.95;;;;;;;18.51;100.00;101895.38;4935493;28;20042;-72
2023/09/02 08:15:25;;;;;;;23.83;21.80;;;;;;;18.66;100.00;101896.72;4970304;28;20073;-71
2023/09/02 08:17:51;;;;;;;24.83;22.40;;;;;;;18.64;100.00;101902.06;4947719;28;20494;-65
2023/09/02 08:20:17;;;;;;;23.88;21.77;;;;;;;18.60;100.00;101899.56;4947254;28;20034;-66
2023/09/02 08:22:43;;;;;;;25.35;22.75;;;;;;;18.58;100.00;101907.56;4923306;28;20260;-66
2023/09/02 08:25:09;;;;;;;25.95;23.65;;;;;;;18.58;100.00;101906.69;4923076;28;20035;-65
2023/09/02 08:27:35;;;;;;;30.88;28.10;;;;;;;18.59;100.00;101903.09;4923926;28;20027;-66
2023/09/02 08:30:01;;;;;;;32.47;29.60;;;;;;;18.57;100.00;101905.81;4937876;28;20030;-66
2023/09/02 08:32:31;;;;;;;31.60;28.90;;;;;;;18.51;100.00;101903.34;4955619;28;20042;-66
2023/09/02 08:34:56;;;;;;;31.57;28.77;;;;;;;18.41;100.00;101905.38;4936207;29;20027;-66
2023/09/02 08:37:22;;;;;;;32.15;29.20;;;;;;;18.42;100.00;101900.91;4913795;28;20089;-65
2023/09/02 08:39:47;;;;;;;31.65;28.75;;;;;;;18.46;100.00;101898.16;4948944;28;20105;-66
2023/09/02 08:42:17;;;;;;;32.10;29.00;;;;;;;18.43;100.00;101908.88;4939439;28;20749;-66
2023/09/02 08:44:45;;;;;;;31.10;28.40;;;;;;;18.34;100.00;101909.97;4954358;28;20242;-66
2023/09/02 08:47:11;;;;;;;30.88;28.17;;;;;;;18.30;100.00;101912.75;4949179;28;20031;-66
2023/09/02 08:49:38;;;;;;;29.65;26.98;;;;;;;18.21;100.00;101921.84;4960891;28;20041;-66
2023/09/02 08:52:05;;;;;;;32.03;29.00;;;;;;;18.22;100.00;101920.06;4968046;28;20166;-66
2023/09/02 08:54:31;;;;;;;32.42;29.42;;;;;;;18.27;100.00;101921.66;4942162;28;20035;-66
2023/09/02 08:56:57;;;;;;;33.53;30.48;;;;;;;18.26;100.00;101927.91;4975076;28;20574;-66
2023/09/02 08:59:25;;;;;;;34.95;31.85;;;;;;;18.36;100.00;101931.19;4941970;28;20070;-66
2023/09/02 09:01:52;;;;;;;34.22;30.88;;;;;;;18.26;100.00;101933.22;4957934;28;20474;-66
2023/09/02 09:04:19;;;;;;;33.03;30.20;;;;;;;18.41;100.00;101931.06;4948937;28;20030;-66
2023/09/02 09:06:44;;;;;;;33.75;30.70;;;;;;;18.51;100.00;101932.53;4927640;28;20027;-66
2023/09/02 09:09:11;;;;;;;33.53;30.58;;;;;;;18.53;100.00;101947.50;4927109;28;20542;-65
2023/09/02 09:11:40;;;;;;;31.10;28.30;;;;;;;18.68;100.00;101946.19;4942734;28;20106;-66
2023/09/02 09:14:11;;;;;;;32.58;29.38;;;;;;;18.64;100.00;101952.50;4956999;28;20027;-66
2023/09/02 09:16:39;;;;;;;31.92;29.02;;;;;;;18.64;100.00;101954.31;4957910;28;20033;-66
2023/09/02 09:19:04;;;;;;;31.60;28.80;;;;;;;18.66;100.00;101953.34;4942788;28;20109;-66
2023/09/02 09:21:30;;;;;;;30.55;27.90;;;;;;;18.69;100.00;101941.75;4942691;28;20495;-66
2023/09/02 09:23:55;;;;;;;33.10;29.90;;;;;;;18.75;100.00;101940.72;4938899;28;20031;-66
2023/09/02 09:26:23;;;;;;;32.38;29.38;;;;;;;18.70;100.00;101941.75;4940492;28;20022;-66
2023/09/02 09:28:56;;;;;;;34.58;31.35;;;;;;;18.82;100.00;101939.63;4946985;28;20078;-66
2023/09/02 09:31:23;;;;;;;36.08;32.70;;;;;;;18.86;100.00;101958.13;4974584;28;20093;-66
2023/09/02 09:34:00;;;;;;;36.25;32.92;;;;;;;18.99;100.00;101949.78;4942172;28;20034;-66
2023/09/02 09:36:26;;;;;;;36.13;32.88;;;;;;;18.80;100.00;101954.72;4926052;28;20023;-66
2023/09/02 09:39:00;;;;;;;38.33;34.70;;;;;;;18.79;100.00;101958.28;4941031;28;20247;-66
2023/09/02 09:41:26;;;;;;;37.53;33.83;;;;;;;18.89;100.00;101973.09;4955836;28;20423;-66
2023/09/02 09:44:12;;;;;;;36.95;33.42;;;;;;;19.01;100.00;101978.06;4941016;28;20122;-66
2023/09/02 09:46:43;;;;;;;35.65;32.25;;;;;;;18.90;100.00;101982.78;4954316;28;20396;-66
2023/09/02 09:49:26;;;;;;;34.67;31.33;;;;;;;19.04;100.00;101977.97;4983703;28;20533;-66
2023/09/02 09:52:08;;;;;;;36.97;33.63;;;;;;;19.18;100.00;101987.31;4948682;28;20185;-66
2023/09/02 09:54:35;;;;;;;34.13;31.05;;;;;;;19.24;100.00;101991.56;4962173;28;20025;-66
2023/09/02 09:57:01;;;;;;;35.55;32.22;;;;;;;19.18;100.00;101992.66;4942397;29;20129;-66
2023/09/02 10:02:04;;;;;;;33.42;30.52;;;;;;;19.29;100.00;101985.19;5285743;23;20067;-67
2023/09/02 10:04:30;;;;;;;34.97;31.77;;;;;;;19.28;100.00;101999.41;4890347;29;20417;-67
2023/09/02 10:07:03;;;;;;;32.90;29.70;;;;;;;19.25;100.00;102004.84;4911765;29;20031;-67
2023/09/02 10:09:55;;;;;;;35.50;32.40;;;;;;;19.34;100.00;102007.19;4911012;29;20058;-67
2023/09/02 10:12:22;;;;;;;39.00;35.40;;;;;;;19.27;100.00;102007.44;4913246;29;20042;-67
2023/09/02 10:14:49;;;;;;;36.40;33.15;;;;;;;19.36;100.00;102010.66;4904608;29;20036;-67
2023/09/02 10:17:16;;;;;;;37.17;33.80;;;;;;;19.31;100.00;102004.63;4914847;29;20039;-67
2023/09/02 10:19:42;;;;;;;35.03;31.92;;;;;;;19.17;100.00;102007.69;4913107;29;20035;-68
2023/09/02 10:22:08;;;;;;;34.55;31.60;;;;;;;19.21;100.00;102013.81;4881236;29;20032;-67
2023/09/02 10:24:39;;;;;;;35.53;32.28;;;;;;;19.11;100.00;102017.66;4898679;29;20031;-68
2023/09/02 10:27:31;;;;;;;33.83;30.90;;;;;;;19.24;100.00;102021.69;4902958;29;20025;-68
2023/09/02 10:29:58;;;;;;;33.28;30.45;;;;;;;19.37;100.00;102019.53;4918939;29;20047;-67
2023/09/02 10:32:28;;;;;;;33.10;30.23;;;;;;;19.50;100.00;102028.00;4893955;29;20032;-67
2023/09/02 10:34:57;;;;;;;31.67;28.98;;;;;;;19.57;100.00;102016.28;4910482;29;20027;-67
2023/09/02 10:37:27;;;;;;;33.42;30.48;;;;;;;19.56;100.00;102020.69;4921140;29;20436;-68
2023/09/02 10:40:07;;;;;;;30.83;28.13;;;;;;;19.70;100.00;102025.59;4904817;29;20039;-68
2023/09/02 10:42:35;;;;;;;29.20;26.58;;;;;;;19.58;100.00;102033.06;4897684;29;20119;-69
2023/09/02 10:45:00;;;;;;;27.88;25.30;;;;;;;19.68;100.00;102031.88;4863005;29;20047;-70
2023/09/02 10:47:26;;;;;;;28.95;26.55;;;;;;;19.76;100.00;102029.00;4909003;29;20027;-69
2023/09/02 10:49:54;;;;;;;29.33;26.83;;;;;;;20.11;100.00;102042.97;4881948;29;20473;-70
2023/09/02 10:52:20;;;;;;;29.00;26.52;;;;;;;20.20;100.00;102032.91;4889453;29;20042;-70
2023/09/02 10:55:09;;;;;;;29.48;26.70;;;;;;;20.26;100.00;102037.16;4896216;29;20457;-70
2023/09/02 10:57:46;;;;;;;26.85;24.55;;;;;;;20.29;100.00;102039.72;4896081;29;20028;-70
2023/09/02 11:00:26;;;;;;;25.17;22.90;;;;;;;20.23;100.00;102042.59;4896682;29;20036;-70
2023/09/02 11:02:56;;;;;;;27.02;24.75;;;;;;;20.08;98.96;102034.19;4910835;29;20035;-70
2023/09/02 11:05:23;;;;;;;28.33;25.90;;;;;;;20.06;100.00;102036.00;4896068;29;20038;-70